Time;durP1;ratioP1;P1;durP2;ratioP2;P2;SDS_P1;SDS_P2;PMS_P1;PMS_P2;Temp;Humidity;BMP_temperature;BMP_pressure;BME280_temperature;BME280_humidity;BME280_pressure;Samples;Min_cycle;Max_cycle;Signal;HPM_P1;HPM_P2
2022/01/16 00:00:58;;;;;;;58.60;23.80;;;;;;;-1.13;69.59;99891.83;106231;1274;97875;-71
2022/01/16 00:06:13;;;;;;;67.70;25.60;;;;;;;-1.15;69.32;99879.67;106167;1274;96627;-71
2022/01/16 00:08:41;;;;;;;65.20;26.30;;;;;;;-1.15;69.55;99882.98;106107;1274;97865;-72
2022/01/16 00:11:11;;;;;;;59.40;24.10;;;;;;;-1.16;69.36;99889.95;106037;1274;111074;-71
2022/01/16 00:13:41;;;;;;;63.80;26.00;;;;;;;-1.16;69.50;99887.70;106084;1274;96351;-71
2022/01/16 00:16:16;;;;;;;59.80;25.30;;;;;;;-1.18;69.22;99882.67;106093;1274;107766;-71
2022/01/16 00:18:54;;;;;;;67.80;27.50;;;;;;;-1.21;69.27;99881.13;106085;1274;97931;-70
2022/01/16 00:21:27;;;;;;;58.70;23.70;;;;;;;-1.24;69.43;99877.88;106085;1274;97886;-72
2022/01/16 00:23:54;;;;;;;61.60;25.30;;;;;;;-1.25;69.59;99874.05;106103;1274;111455;-72
2022/01/16 00:26:26;;;;;;;72.80;27.10;;;;;;;-1.28;69.20;99875.99;106128;1274;97802;-72
2022/01/16 00:28:54;;;;;;;66.10;26.80;;;;;;;-1.30;69.41;99860.88;106150;1274;107658;-72
2022/01/16 00:31:23;;;;;;;62.70;25.00;;;;;;;-1.33;69.47;99852.20;106052;1274;97869;-72
2022/01/16 00:33:52;;;;;;;66.70;27.00;;;;;;;-1.36;69.67;99855.02;106092;1273;97839;-71
2022/01/16 00:36:21;;;;;;;72.20;29.00;;;;;;;-1.38;69.64;99869.30;106086;1274;111328;-71
2022/01/16 00:38:53;;;;;;;67.40;27.30;;;;;;;-1.40;69.64;99881.69;106160;1274;97874;-73
2022/01/16 00:41:21;;;;;;;67.40;28.40;;;;;;;-1.42;69.74;99881.70;106096;1274;106301;-71
2022/01/16 00:43:51;;;;;;;71.50;29.10;;;;;;;-1.42;69.62;99895.27;106080;1274;97743;-71
2022/01/16 00:46:20;;;;;;;68.90;28.50;;;;;;;-1.44;69.48;99905.58;106158;1274;97819;-71
2022/01/16 00:48:49;;;;;;;77.00;29.50;;;;;;;-1.45;69.74;99876.70;106211;1274;111475;-70
2022/01/16 00:51:19;;;;;;;66.80;26.80;;;;;;;-1.48;69.53;99868.90;106255;1274;97849;-71
2022/01/16 00:53:47;;;;;;;68.50;27.80;;;;;;;-1.51;69.73;99881.79;106090;1274;107733;-72
2022/01/16 00:56:15;;;;;;;70.00;28.80;;;;;;;-1.53;69.39;99895.23;106106;1274;97817;-71
2022/01/16 00:58:42;;;;;;;60.80;26.40;;;;;;;-1.54;69.51;99889.14;106139;1274;97112;-73
2022/01/16 01:01:10;;;;;;;64.10;27.70;;;;;;;-1.55;69.49;99903.23;106189;1274;111336;-72
2022/01/16 01:03:38;;;;;;;82.20;36.70;;;;;;;-1.56;69.62;99899.95;106121;1274;97835;-72
2022/01/16 01:06:09;;;;;;;65.90;28.20;;;;;;;-1.56;69.58;99882.20;106084;1274;107763;-74
2022/01/16 01:08:37;;;;;;;61.00;25.00;;;;;;;-1.55;69.62;99874.70;106099;1272;97822;-72
2022/01/16 01:11:10;;;;;;;61.50;25.90;;;;;;;-1.54;69.97;99878.52;106192;1274;95243;-73
2022/01/16 01:16:38;;;;;;;53.10;22.50;;;;;;;-1.51;69.57;99891.71;106083;1274;97885;-73
2022/01/16 01:19:08;;;;;;;64.50;25.00;;;;;;;-1.51;69.71;99901.29;106050;1274;107656;-73
2022/01/16 01:21:36;;;;;;;65.50;28.00;;;;;;;-1.50;69.76;99857.27;106036;1274;97886;-73
2022/01/16 01:24:04;;;;;;;62.80;24.00;;;;;;;-1.49;69.55;99844.73;106099;1273;96450;-70
2022/01/16 01:26:38;;;;;;;63.50;24.70;;;;;;;-1.50;69.48;99864.91;106075;1274;111453;-71
2022/01/16 01:29:06;;;;;;;64.60;27.20;;;;;;;-1.49;69.84;99853.60;106091;1274;97975;-72
2022/01/16 01:31:34;;;;;;;61.90;24.50;;;;;;;-1.48;69.59;99856.72;106134;1274;107793;-73
2022/01/16 01:34:03;;;;;;;70.10;26.00;;;;;;;-1.47;69.67;99879.50;106149;1274;97839;-74
2022/01/16 01:36:31;;;;;;;62.70;24.10;;;;;;;-1.47;69.63;99818.79;106106;1274;98479;-72
2022/01/16 01:38:59;;;;;;;67.90;27.40;;;;;;;-1.47;69.74;99741.71;106159;1274;109743;-72
2022/01/16 01:41:29;;;;;;;60.80;24.80;;;;;;;-1.47;69.84;99739.27;106091;1274;96440;-71
2022/01/16 01:52:20;;;;;;;58.80;24.90;;;;;;;-1.59;69.81;99782.21;106198;1274;111421;-71
2022/01/16 01:54:48;;;;;;;61.70;24.40;;;;;;;-1.61;69.99;99768.33;106282;1274;97829;-71
2022/01/16 01:57:21;;;;;;;57.00;24.20;;;;;;;-1.61;69.86;99790.76;106287;1273;107651;-70
2022/01/16 01:59:49;;;;;;;59.90;25.20;;;;;;;-1.64;69.58;99793.06;106269;1274;97883;-71
2022/01/16 02:02:17;;;;;;;56.90;25.20;;;;;;;-1.68;69.85;99789.27;106259;1274;95783;-72
2022/01/16 02:04:47;;;;;;;59.20;25.00;;;;;;;-1.70;69.78;99805.48;106237;1274;111305;-71
2022/01/16 02:07:18;;;;;;;61.20;24.90;;;;;;;-1.72;70.01;99812.96;106218;1274;95302;-70
2022/01/16 02:09:46;;;;;;;61.60;23.60;;;;;;;-1.76;69.93;99814.23;106055;1274;108586;-72
2022/01/16 02:12:17;;;;;;;64.10;23.90;;;;;;;-1.81;69.59;99769.58;106263;1274;97965;-72
2022/01/16 02:15:05;;;;;;;59.10;25.10;;;;;;;-1.83;70.14;99772.73;106275;1274;97850;-73
2022/01/16 02:29:03;;;;;;;55.70;25.60;;;;;;;-1.88;70.14;99828.77;106279;1274;97887;-70
2022/01/16 02:31:31;;;;;;;60.40;25.70;;;;;;;-1.90;69.93;99829.84;106232;1274;112817;-71
2022/01/16 02:36:50;;;;;;;80.20;31.00;;;;;;;-2.02;69.71;99823.16;106223;1273;107719;-70
2022/01/16 02:39:28;;;;;;;66.00;31.50;;;;;;;-2.07;69.72;99825.30;106214;1274;95734;-70
2022/01/16 02:41:58;;;;;;;75.70;30.90;;;;;;;-2.09;69.79;99818.36;106249;1274;98576;-72
2022/01/16 02:46:57;;;;;;;77.50;34.00;;;;;;;-2.13;69.67;99820.30;106220;1274;95414;-72
2022/01/16 02:49:30;;;;;;;76.20;31.90;;;;;;;-2.12;69.79;99816.14;106236;1274;107818;-71
2022/01/16 02:52:06;;;;;;;79.60;33.90;;;;;;;-2.11;69.81;99815.77;106255;1274;95388;-70
2022/01/16 02:54:39;;;;;;;87.60;36.70;;;;;;;-2.10;69.81;99824.80;106244;1274;98009;-69
2022/01/16 02:57:12;;;;;;;79.20;34.00;;;;;;;-2.10;70.28;99818.37;106207;1274;111408;-71
2022/01/16 02:59:53;;;;;;;81.20;34.70;;;;;;;-2.08;69.92;99808.80;106180;1274;95280;-70
2022/01/16 03:02:25;;;;;;;87.40;38.10;;;;;;;-2.05;70.16;99809.46;106211;1274;106626;-70
2022/01/16 03:04:54;;;;;;;87.00;35.70;;;;;;;-2.01;70.07;99808.91;106245;1274;95290;-70
2022/01/16 03:07:27;;;;;;;83.80;38.50;;;;;;;-1.97;70.08;99805.73;106283;1274;97868;-70
2022/01/16 03:12:37;;;;;;;81.20;38.80;;;;;;;-1.97;70.20;99812.52;106194;1274;95280;-70
2022/01/16 03:15:07;;;;;;;93.70;41.30;;;;;;;-1.94;70.32;99811.44;106110;1274;107618;-70
2022/01/16 03:17:40;;;;;;;79.90;34.80;;;;;;;-1.89;70.20;99802.53;106082;1274;98933;-70
2022/01/16 03:22:56;;;;;;;87.00;36.20;;;;;;;-1.82;70.45;99800.02;106107;1274;111502;-71
2022/01/16 03:25:26;;;;;;;80.30;34.10;;;;;;;-1.80;70.42;99801.22;106129;1274;95385;-72
2022/01/16 03:27:54;;;;;;;84.90;36.90;;;;;;;-1.79;70.54;99792.17;106105;1274;107599;-71
2022/01/16 03:30:21;;;;;;;87.20;34.70;;;;;;;-1.80;70.31;99792.35;106002;1274;131007;-72
2022/01/16 03:32:50;;;;;;;83.10;36.50;;;;;;;-1.78;70.33;99790.23;106144;1274;97872;-72
2022/01/16 03:35:20;;;;;;;79.90;39.30;;;;;;;-1.76;70.64;99796.66;106170;1274;111504;-73
2022/01/16 03:37:50;;;;;;;89.20;37.00;;;;;;;-1.76;70.61;99787.09;106209;1274;97888;-72
2022/01/16 03:40:21;;;;;;;83.30;36.40;;;;;;;-1.80;70.43;99776.34;106139;1274;106810;-72
2022/01/16 03:42:58;;;;;;;82.50;39.00;;;;;;;-1.81;70.46;99772.36;106113;1274;97919;-72
2022/01/16 03:45:28;;;;;;;89.30;37.80;;;;;;;-1.81;70.78;99767.67;106114;1274;97953;-71
2022/01/16 03:47:56;;;;;;;84.00;37.50;;;;;;;-1.82;70.42;99765.08;106192;1274;111545;-70
2022/01/16 03:50:24;;;;;;;80.30;38.50;;;;;;;-1.83;70.47;99761.60;106183;1274;97982;-72
2022/01/16 03:52:54;;;;;;;90.80;40.60;;;;;;;-1.83;70.41;99763.69;106198;1274;106836;-72
2022/01/16 03:55:22;;;;;;;88.10;38.80;;;;;;;-1.83;70.64;99760.90;106174;1274;97997;-71
2022/01/16 03:57:50;;;;;;;89.40;35.30;;;;;;;-1.83;70.65;99754.14;106164;1274;97843;-71
2022/01/16 04:00:18;;;;;;;83.40;36.80;;;;;;;-1.85;70.71;99754.85;106111;1274;111413;-72
2022/01/16 04:02:48;;;;;;;85.20;37.30;;;;;;;-1.87;70.77;99744.80;106233;1274;97957;-71
2022/01/16 04:05:16;;;;;;;83.60;39.00;;;;;;;-1.87;70.67;99745.14;106113;1274;107656;-69
2022/01/16 04:07:44;;;;;;;87.20;37.40;;;;;;;-1.88;70.62;99743.94;106084;1274;97972;-71
2022/01/16 04:10:12;;;;;;;94.90;41.40;;;;;;;-1.90;70.56;99747.61;106063;1274;97937;-71
2022/01/16 04:12:40;;;;;;;95.80;40.20;;;;;;;-1.91;70.56;99751.62;106182;1274;111448;-71
2022/01/16 04:15:32;;;;;;;98.80;40.90;;;;;;;-1.92;70.77;99745.71;106139;1274;97007;-70
2022/01/16 04:18:03;;;;;;;88.30;38.80;;;;;;;-1.94;70.40;99737.55;106036;1274;107662;-71
2022/01/16 04:20:34;;;;;;;87.60;37.70;;;;;;;-1.96;70.50;99737.92;106125;1274;97976;-72
2022/01/16 04:23:06;;;;;;;92.50;39.20;;;;;;;-1.96;70.64;99737.75;106285;1274;98607;-74
2022/01/16 04:25:34;;;;;;;85.60;37.60;;;;;;;-1.97;70.67;99737.60;106203;1274;111087;-71
2022/01/16 04:28:05;;;;;;;90.00;41.50;;;;;;;-1.98;70.47;99738.81;106228;1274;95787;-71
2022/01/16 04:30:33;;;;;;;90.90;39.90;;;;;;;-1.99;70.68;99744.21;106212;1274;106432;-71
2022/01/16 04:33:01;;;;;;;93.80;38.00;;;;;;;-2.00;70.64;99743.02;106164;1274;97936;-71
2022/01/16 04:35:31;;;;;;;90.60;37.80;;;;;;;-2.01;70.50;99737.80;106155;1274;97978;-71
2022/01/16 04:37:59;;;;;;;99.50;42.20;;;;;;;-2.02;70.73;99736.94;106120;1274;111426;-69
2022/01/16 04:43:47;;;;;;;92.20;38.80;;;;;;;-2.02;70.78;99733.48;106117;1274;95169;-71
2022/01/16 04:46:09;;;;;;;101.70;38.40;;;;;;;-2.07;70.71;99733.02;106178;1274;97785;-72
2022/01/16 04:48:37;;;;;;;82.00;38.10;;;;;;;-2.09;70.52;99734.42;106241;1274;97953;-71
2022/01/16 04:51:05;;;;;;;87.90;36.90;;;;;;;-2.12;70.58;99741.05;106144;1274;110376;-72
2022/01/16 04:53:33;;;;;;;94.30;40.20;;;;;;;-2.19;70.40;99735.20;106243;1274;97984;-72
2022/01/16 04:56:01;;;;;;;97.30;39.80;;;;;;;-2.24;70.55;99729.52;106155;1274;107777;-73
2022/01/16 04:58:29;;;;;;;80.80;36.40;;;;;;;-2.28;70.42;99732.86;106246;1274;97915;-72
2022/01/16 05:00:56;;;;;;;91.00;37.10;;;;;;;-2.34;70.63;99727.89;106111;1274;95254;-72
2022/01/16 05:03:28;;;;;;;85.20;38.30;;;;;;;-2.41;70.47;99726.55;106112;1273;112185;-72
2022/01/16 05:05:58;;;;;;;87.80;36.40;;;;;;;-2.51;70.63;99717.98;106156;1274;97983;-73
2022/01/16 05:08:29;;;;;;;90.30;38.50;;;;;;;-2.57;70.62;99716.27;106103;1274;107891;-72
2022/01/16 05:11:00;;;;;;;82.20;38.00;;;;;;;-2.58;70.75;99717.33;106183;1274;97942;-72
2022/01/16 05:18:55;;;;;;;74.10;33.50;;;;;;;-2.62;70.78;99712.84;106143;1274;95275;-70
2022/01/16 05:21:25;;;;;;;85.90;31.40;;;;;;;-2.61;70.75;99715.44;106125;1274;108000;-72
2022/01/16 05:23:53;;;;;;;77.60;31.40;;;;;;;-2.60;70.80;99711.27;106163;1274;97893;-71
2022/01/16 05:26:27;;;;;;;80.20;33.40;;;;;;;-2.60;70.88;99704.15;106095;1273;98641;-72
2022/01/16 05:28:58;;;;;;;86.60;34.10;;;;;;;-2.58;70.85;99700.66;106090;1274;111793;-72
2022/01/16 05:31:28;;;;;;;71.10;29.70;;;;;;;-2.58;70.90;99700.14;106225;1274;97876;-72
2022/01/16 05:33:58;;;;;;;64.90;29.70;;;;;;;-2.55;71.02;99699.59;106128;1274;107748;-70
2022/01/16 05:36:28;;;;;;;60.90;24.60;;;;;;;-2.51;71.10;99699.56;106191;1274;97998;-71
2022/01/16 05:38:56;;;;;;;68.90;27.20;;;;;;;-2.48;70.98;99698.84;106114;1274;95171;-71
2022/01/16 05:41:24;;;;;;;72.90;29.30;;;;;;;-2.44;71.06;99703.65;106112;1273;111436;-72
2022/01/16 05:43:52;;;;;;;73.10;30.20;;;;;;;-2.38;71.35;99698.04;106182;1274;97924;-71
2022/01/16 05:46:24;;;;;;;67.60;27.60;;;;;;;-2.34;71.32;99693.48;106126;1274;108865;-71
2022/01/16 05:48:52;;;;;;;70.60;30.20;;;;;;;-2.30;70.81;99693.63;106221;1274;97901;-72
2022/01/16 05:51:20;;;;;;;68.70;28.60;;;;;;;-2.27;71.02;99696.55;106190;1274;98469;-71
2022/01/16 05:53:50;;;;;;;61.10;24.90;;;;;;;-2.25;70.81;99697.73;106156;1274;111413;-71
2022/01/16 05:56:20;;;;;;;63.20;26.60;;;;;;;-2.22;70.92;99703.11;106192;1274;97982;-74
2022/01/16 05:58:47;;;;;;;63.20;25.60;;;;;;;-2.21;71.31;99698.73;106133;1275;107703;-72
2022/01/16 06:01:15;;;;;;;64.30;24.70;;;;;;;-2.21;70.77;99698.39;106114;1274;97861;-72
2022/01/16 06:03:45;;;;;;;54.00;22.60;;;;;;;-2.21;70.82;99704.30;106101;1274;95416;-72
2022/01/16 06:06:14;;;;;;;56.60;21.90;;;;;;;-2.21;71.02;99702.04;106156;1274;111402;-70
2022/01/16 06:08:43;;;;;;;55.90;22.50;;;;;;;-2.19;71.14;99700.29;106254;1274;97903;-71
2022/01/16 06:11:13;;;;;;;53.70;21.90;;;;;;;-2.17;71.01;99706.00;106140;1273;108028;-68
2022/01/16 06:13:40;;;;;;;51.80;22.00;;;;;;;-2.15;70.93;99712.77;106102;1274;98094;-68
2022/01/16 06:16:08;;;;;;;52.90;20.10;;;;;;;-2.14;70.97;99711.88;106121;1274;97867;-71
2022/01/16 06:18:36;;;;;;;45.80;19.30;;;;;;;-2.12;71.09;99709.78;106123;1273;111357;-70
2022/01/16 06:21:04;;;;;;;52.70;20.00;;;;;;;-2.11;70.94;99710.98;106258;1274;97905;-70
2022/01/16 06:23:32;;;;;;;51.30;20.30;;;;;;;-2.08;70.88;99712.16;106187;1274;106214;-72
2022/01/16 06:26:00;;;;;;;47.10;20.80;;;;;;;-2.06;70.91;99714.40;106169;1274;98580;-70
2022/01/16 06:28:31;;;;;;;47.20;20.90;;;;;;;-2.05;70.91;99710.40;106179;1274;97948;-70
2022/01/16 06:31:04;;;;;;;58.50;23.40;;;;;;;-2.04;70.92;99704.99;106123;1273;111562;-70
2022/01/16 06:33:31;;;;;;;52.10;21.50;;;;;;;-2.01;71.00;99701.83;106150;1274;96252;-71
2022/01/16 06:36:01;;;;;;;51.40;20.60;;;;;;;-1.98;71.40;99698.15;106109;1274;107758;-71
2022/01/16 06:38:34;;;;;;;52.60;19.90;;;;;;;-1.95;71.00;99696.20;106102;1274;97960;-71
2022/01/16 06:41:03;;;;;;;49.00;20.50;;;;;;;-1.92;71.14;99688.17;106176;1274;95258;-70
2022/01/16 06:43:30;;;;;;;55.60;20.60;;;;;;;-1.89;71.19;99690.40;106126;1274;111410;-70
2022/01/16 06:46:01;;;;;;;46.00;18.80;;;;;;;-1.86;71.30;99688.27;106117;1274;97935;-72
2022/01/16 06:48:30;;;;;;;51.20;18.60;;;;;;;-1.84;71.32;99679.21;106144;1274;107810;-71
2022/01/16 06:51:00;;;;;;;51.30;19.30;;;;;;;-1.82;71.17;99671.88;106166;1274;97887;-71
2022/01/16 06:53:30;;;;;;;43.50;19.00;;;;;;;-1.85;71.02;99669.32;106153;1272;95275;-73
2022/01/16 06:55:58;;;;;;;42.20;18.70;;;;;;;-1.94;71.00;99674.11;106225;1273;111325;-73
2022/01/16 06:58:26;;;;;;;51.70;20.10;;;;;;;-1.98;71.05;99682.66;106134;1274;97949;-71
2022/01/16 07:00:57;;;;;;;45.60;18.90;;;;;;;-1.96;71.17;99696.20;106150;1274;107763;-72
2022/01/16 07:03:25;;;;;;;47.70;19.60;;;;;;;-1.91;71.10;99686.42;106152;1274;97978;-71
2022/01/16 07:05:52;;;;;;;54.60;19.60;;;;;;;-1.88;71.26;99687.77;106168;1272;95888;-71
2022/01/16 07:08:23;;;;;;;44.30;18.90;;;;;;;-1.86;71.27;99687.05;106125;1274;111318;-73
2022/01/16 07:10:57;;;;;;;43.00;17.40;;;;;;;-1.83;71.36;99690.50;106146;1274;97893;-71
2022/01/16 07:13:28;;;;;;;44.80;17.50;;;;;;;-1.79;71.37;99693.23;106081;1273;107395;-72
2022/01/16 07:15:58;;;;;;;43.20;17.40;;;;;;;-1.73;71.63;99690.73;106143;1274;97796;-70
2022/01/16 07:18:27;;;;;;;47.00;16.90;;;;;;;-1.67;71.44;99680.92;106201;1274;98704;-72
2022/01/16 07:20:57;;;;;;;36.70;14.80;;;;;;;-1.61;71.51;99678.06;106126;1274;111412;-72
2022/01/16 07:23:28;;;;;;;39.20;14.40;;;;;;;-1.58;71.42;99674.54;106216;1274;97891;-71
2022/01/16 07:25:56;;;;;;;37.30;15.70;;;;;;;-1.60;71.54;99677.52;106242;1274;109112;-73
2022/01/16 07:28:24;;;;;;;45.50;16.90;;;;;;;-1.62;71.38;99675.48;106144;1273;95403;-71
2022/01/16 07:30:51;;;;;;;45.30;18.10;;;;;;;-1.64;71.49;99663.31;106143;1274;97825;-71
2022/01/16 07:33:19;;;;;;;48.20;17.40;;;;;;;-1.65;71.51;99662.81;106133;1274;111415;-71
2022/01/16 07:35:47;;;;;;;40.50;15.10;;;;;;;-1.63;71.35;99664.69;106121;1274;95837;-72
2022/01/16 07:38:15;;;;;;;44.30;16.90;;;;;;;-1.62;71.46;99665.89;106044;1274;109232;-72
2022/01/16 07:40:43;;;;;;;38.40;15.50;;;;;;;-1.59;71.61;99671.24;106089;1274;97641;-71
2022/01/16 07:43:12;;;;;;;39.60;16.70;;;;;;;-1.56;71.34;99670.16;106184;1274;97861;-72
2022/01/16 07:45:45;;;;;;;38.80;15.80;;;;;;;-1.50;71.35;99676.52;106199;1274;111280;-70
2022/01/16 07:48:13;;;;;;;38.60;16.10;;;;;;;-1.42;71.53;99686.33;106164;1274;97834;-70
2022/01/16 07:50:41;;;;;;;44.50;16.80;;;;;;;-1.36;71.47;99690.77;106126;1274;107691;-71
2022/01/16 07:53:10;;;;;;;48.80;19.10;;;;;;;-1.30;71.31;99687.39;106146;1274;97889;-71
2022/01/16 07:55:37;;;;;;;43.50;18.70;;;;;;;-1.25;71.59;99681.22;106185;1274;97911;-73
2022/01/16 07:58:05;;;;;;;46.50;20.10;;;;;;;-1.20;71.37;99674.70;106154;1274;111485;-73
2022/01/16 08:00:33;;;;;;;45.70;19.90;;;;;;;-1.14;71.37;99661.55;106104;1274;95205;-71
2022/01/16 08:03:03;;;;;;;45.10;17.70;;;;;;;-1.06;71.36;99664.75;106142;1274;107659;-72
2022/01/16 08:05:36;;;;;;;42.20;17.80;;;;;;;-0.99;71.52;99668.13;106046;1274;97966;-73
2022/01/16 08:08:05;;;;;;;48.30;18.40;;;;;;;-0.94;71.46;99667.86;106221;1274;97877;-72
2022/01/16 08:10:33;;;;;;;45.80;17.50;;;;;;;-0.90;71.44;99666.93;106212;1274;111447;-76
2022/01/16 08:13:03;;;;;;;39.40;15.30;;;;;;;-0.85;71.47;99662.16;106155;1274;97924;-73
2022/01/16 08:15:30;;;;;;;39.90;17.70;;;;;;;-0.80;71.33;99660.85;106180;1274;107730;-76
2022/01/16 08:17:58;;;;;;;43.60;15.50;;;;;;;-0.75;71.58;99659.20;106243;1274;97932;-73
2022/01/16 08:20:28;;;;;;;40.60;14.50;;;;;;;-0.72;71.33;99655.66;106252;1274;97963;-70
2022/01/16 08:22:56;;;;;;;40.30;14.20;;;;;;;-0.71;71.38;99646.07;106107;1274;111403;-71
2022/01/16 08:25:25;;;;;;;34.00;13.10;;;;;;;-0.69;71.54;99638.90;106102;1274;97908;-71
2022/01/16 08:27:55;;;;;;;33.50;13.50;;;;;;;-0.64;71.50;99632.89;106081;1274;107775;-71
2022/01/16 08:30:25;;;;;;;34.50;11.40;;;;;;;-0.59;71.53;99631.92;106120;1273;97944;-71
2022/01/16 08:32:55;;;;;;;39.50;15.20;;;;;;;-0.56;71.37;99617.42;105961;1274;97986;-74
2022/01/16 08:35:23;;;;;;;41.40;15.20;;;;;;;-0.55;71.52;99615.48;106178;1274;111346;-72
2022/01/16 08:37:51;;;;;;;37.70;15.00;;;;;;;-0.56;71.32;99623.16;106106;1274;97831;-73
2022/01/16 08:40:21;;;;;;;42.10;15.20;;;;;;;-0.55;71.28;99624.52;106155;1273;107916;-71
2022/01/16 08:42:49;;;;;;;34.20;14.10;;;;;;;-0.55;71.28;99618.43;106070;1274;97822;-72
2022/01/16 08:45:19;;;;;;;39.30;14.50;;;;;;;-0.48;71.34;99623.73;106178;1274;97756;-72
2022/01/16 08:47:49;;;;;;;37.20;14.80;;;;;;;-0.41;71.30;99626.20;106165;1274;111403;-71
2022/01/16 08:50:17;;;;;;;47.20;15.30;;;;;;;-0.31;71.31;99613.45;106188;1274;97879;-72
2022/01/16 08:52:45;;;;;;;38.90;13.90;;;;;;;-0.20;71.31;99603.48;106191;1273;107383;-71
2022/01/16 08:55:13;;;;;;;40.80;15.70;;;;;;;-0.11;71.25;99600.16;106158;1274;95420;-71
2022/01/16 08:57:41;;;;;;;36.00;15.10;;;;;;;-0.07;71.22;99596.96;106175;1274;97832;-72
2022/01/16 09:00:10;;;;;;;36.00;14.70;;;;;;;0.01;71.28;99591.73;106204;1273;111068;-71
2022/01/16 09:02:38;;;;;;;33.70;13.10;;;;;;;0.11;71.30;99587.34;106202;1274;98010;-70
2022/01/16 09:05:11;;;;;;;34.70;14.60;;;;;;;0.22;71.30;99580.83;106183;1274;107738;-72
2022/01/16 09:07:40;;;;;;;35.30;14.30;;;;;;;0.30;71.29;99574.01;106153;1271;97844;-74
2022/01/16 09:10:08;;;;;;;35.60;14.10;;;;;;;0.38;71.24;99574.54;106123;1274;97875;-73
2022/01/16 09:12:38;;;;;;;39.10;15.20;;;;;;;0.44;71.18;99571.95;106191;1274;111537;-72
2022/01/16 09:15:10;;;;;;;36.20;14.70;;;;;;;0.44;70.85;99565.67;106099;1274;95356;-73
2022/01/16 09:17:42;;;;;;;38.60;15.10;;;;;;;0.47;70.71;99560.20;106186;1274;107607;-74
2022/01/16 09:20:15;;;;;;;39.90;15.40;;;;;;;0.59;70.95;99548.39;106182;1274;97879;-74
2022/01/16 09:22:45;;;;;;;34.80;14.70;;;;;;;0.78;70.83;99542.17;106196;1274;97905;-75
2022/01/16 09:25:14;;;;;;;36.20;14.00;;;;;;;1.05;70.88;99539.41;106209;1274;112346;-73
2022/01/16 09:27:45;;;;;;;33.50;15.30;;;;;;;1.47;70.73;99530.42;106202;1274;97982;-73
2022/01/16 09:30:15;;;;;;;36.10;14.80;;;;;;;1.89;71.06;99528.86;106190;1274;107887;-73
2022/01/16 09:32:46;;;;;;;33.30;14.30;;;;;;;2.14;70.77;99522.54;106146;1272;96464;-72
2022/01/16 09:35:15;;;;;;;34.60;15.40;;;;;;;2.34;70.70;99522.78;106115;1274;97930;-71
2022/01/16 09:37:47;;;;;;;31.30;14.00;;;;;;;2.45;69.86;99515.27;106132;1274;111340;-73
2022/01/16 09:40:19;;;;;;;33.30;15.60;;;;;;;2.38;69.46;99509.55;106158;1274;97969;-73
2022/01/16 09:42:48;;;;;;;37.00;15.90;;;;;;;2.16;69.29;99505.15;106158;1274;108519;-72
2022/01/16 09:45:20;;;;;;;37.20;16.40;;;;;;;1.97;68.99;99500.31;106162;1273;95877;-70
2022/01/16 09:47:50;;;;;;;39.50;18.00;;;;;;;1.86;68.90;99498.70;106003;1274;97785;-82
2022/01/16 09:50:24;;;;;;;42.60;18.50;;;;;;;1.84;69.37;99495.64;106081;1274;112237;-74
2022/01/16 09:52:54;;;;;;;38.30;16.10;;;;;;;1.95;69.87;99490.38;106192;1274;97864;-70
2022/01/16 09:55:22;;;;;;;38.90;16.90;;;;;;;2.13;69.59;99484.77;106103;1274;107825;-71
2022/01/16 09:57:54;;;;;;;38.60;17.00;;;;;;;2.31;69.80;99477.40;106131;1274;97869;-71
2022/01/16 10:00:24;;;;;;;44.00;18.50;;;;;;;2.50;69.64;99477.13;106168;1274;97490;-70
2022/01/16 10:02:54;;;;;;;40.30;16.50;;;;;;;2.67;69.93;99479.00;106284;1274;111291;-72
2022/01/16 10:05:29;;;;;;;41.30;18.30;;;;;;;2.81;69.15;99466.83;106208;1274;95982;-73
2022/01/16 10:08:03;;;;;;;36.60;16.00;;;;;;;2.84;67.98;99460.75;106135;1274;107731;-74
2022/01/16 10:10:42;;;;;;;39.40;17.50;;;;;;;2.81;68.36;99457.88;106133;1274;97918;-71
2022/01/16 10:13:24;;;;;;;35.30;14.70;;;;;;;2.91;67.51;99453.85;106055;1274;96467;-72
2022/01/16 10:15:56;;;;;;;35.30;15.60;;;;;;;2.80;66.25;99448.62;106066;1274;111340;-72
2022/01/16 10:18:40;;;;;;;32.90;13.70;;;;;;;2.75;67.43;99447.59;106209;1273;97924;-73
2022/01/16 10:21:10;;;;;;;30.40;11.30;;;;;;;2.96;67.61;99443.33;106078;1274;107652;-70
2022/01/16 10:23:45;;;;;;;32.00;12.90;;;;;;;3.12;67.27;99442.22;106153;1274;97928;-71
2022/01/16 10:26:21;;;;;;;27.10;11.40;;;;;;;3.22;66.41;99438.38;106084;1274;97961;-71
2022/01/16 10:28:50;;;;;;;31.00;11.80;;;;;;;3.31;66.76;99434.73;106130;1274;111386;-76
2022/01/16 10:31:26;;;;;;;29.00;11.00;;;;;;;3.47;66.71;99425.36;106126;1272;97892;-73
2022/01/16 10:33:58;;;;;;;28.40;10.60;;;;;;;3.62;66.96;99423.93;106039;1274;108187;-75
2022/01/16 10:36:38;;;;;;;28.50;11.30;;;;;;;3.60;64.83;99421.74;106109;1274;97761;-73
2022/01/16 10:39:12;;;;;;;26.90;11.40;;;;;;;3.45;64.31;99416.48;106080;1274;97890;-75
2022/01/16 10:41:40;;;;;;;31.40;11.80;;;;;;;3.45;65.36;99407.39;106026;1274;111491;-74
2022/01/16 10:44:34;;;;;;;29.10;11.40;;;;;;;3.59;65.34;99401.27;106106;1273;95893;-70
2022/01/16 10:47:25;;;;;;;26.20;11.20;;;;;;;3.67;65.40;99395.17;106132;1273;107647;-75
2022/01/16 10:50:05;;;;;;;25.60;10.80;;;;;;;3.74;65.70;99386.27;106089;1273;96263;-76
2022/01/16 10:52:48;;;;;;;27.70;10.00;;;;;;;3.65;63.66;99381.54;106040;1274;96339;-73
2022/01/16 10:55:19;;;;;;;26.80;11.10;;;;;;;3.38;62.63;99373.65;106248;1274;111096;-72
2022/01/16 10:57:51;;;;;;;25.10;10.00;;;;;;;3.14;62.66;99367.69;106046;1274;96258;-73
2022/01/16 11:00:24;;;;;;;27.00;10.10;;;;;;;3.04;62.60;99365.80;105986;1274;108429;-72
2022/01/16 11:02:54;;;;;;;26.40;9.60;;;;;;;3.01;61.75;99358.91;106122;1274;97962;-80
2022/01/16 11:05:27;;;;;;;27.30;10.60;;;;;;;2.89;62.07;99357.90;106113;1274;97878;-73
2022/01/16 11:08:12;;;;;;;26.40;10.40;;;;;;;2.88;61.75;99363.73;106090;1273;111474;-75
2022/01/16 11:10:54;;;;;;;25.80;9.60;;;;;;;2.67;59.95;99358.55;106159;1274;96539;-77
2022/01/16 11:13:34;;;;;;;26.20;10.30;;;;;;;2.56;59.75;99352.96;106135;1273;107707;-76
2022/01/16 11:16:11;;;;;;;25.40;10.80;;;;;;;2.61;60.94;99344.92;106209;1274;97975;-74
2022/01/16 11:18:48;;;;;;;24.60;9.70;;;;;;;2.73;60.18;99335.55;106198;1273;96516;-73
2022/01/16 11:21:34;;;;;;;24.10;9.20;;;;;;;2.75;59.26;99330.76;106099;1274;111295;-75
2022/01/16 11:26:52;;;;;;;24.50;9.80;;;;;;;2.67;59.26;99322.61;106182;1274;107695;-75
2022/01/16 11:29:20;;;;;;;25.10;9.50;;;;;;;2.69;60.31;99315.03;106262;1274;96916;-74
2022/01/16 11:31:52;;;;;;;25.10;9.30;;;;;;;2.76;59.55;99309.88;107326;1273;97975;-76
2022/01/16 11:34:20;;;;;;;26.20;9.70;;;;;;;2.70;58.70;99310.46;106116;1274;112325;-74
2022/01/16 11:36:48;;;;;;;23.90;9.50;;;;;;;2.65;59.26;99307.81;106108;1274;97877;-76
2022/01/16 11:39:17;;;;;;;26.80;9.90;;;;;;;2.69;59.42;99304.34;106194;1274;107733;-77
2022/01/16 11:41:52;;;;;;;24.80;10.20;;;;;;;2.71;60.08;99297.80;106138;1273;97949;-75
2022/01/16 11:44:27;;;;;;;28.40;10.50;;;;;;;2.70;59.57;99291.86;106035;1274;98676;-74
2022/01/16 11:47:03;;;;;;;24.80;10.40;;;;;;;2.66;59.64;99287.81;106193;1274;111377;-70
2022/01/16 11:49:36;;;;;;;26.10;9.50;;;;;;;2.64;59.60;99289.80;106152;1273;97948;-73
2022/01/16 11:52:13;;;;;;;26.70;10.70;;;;;;;2.57;58.51;99285.88;106140;1274;107746;-73
2022/01/16 11:54:43;;;;;;;25.40;10.40;;;;;;;2.51;58.90;99293.09;106171;1273;96060;-72
2022/01/16 11:57:31;;;;;;;29.10;10.60;;;;;;;2.48;59.07;99289.00;106164;1273;95949;-71
2022/01/16 12:00:14;;;;;;;25.30;10.40;;;;;;;2.50;58.91;99288.91;106134;1274;111224;-72
2022/01/16 12:02:46;;;;;;;28.00;11.00;;;;;;;2.45;57.91;99285.09;106099;1274;98002;-73
2022/01/16 12:05:24;;;;;;;25.80;10.30;;;;;;;2.40;58.36;99284.93;106112;1274;107910;-73
2022/01/16 12:07:54;;;;;;;27.80;10.60;;;;;;;2.38;58.44;99286.02;106198;1274;96582;-72
2022/01/16 12:10:44;;;;;;;29.10;12.20;;;;;;;2.33;57.79;99285.51;106155;1274;98622;-71
2022/01/16 12:14:03;;;;;;;26.80;10.80;;;;;;;2.36;57.98;99285.20;106073;1273;111507;-71